Time;durP1;ratioP1;P1;durP2;ratioP2;P2;SDS_P1;SDS_P2;PMS_P1;PMS_P2;Temp;Humidity;BMP_temperature;BMP_pressure;BME280_temperature;BME280_humidity;BME280_pressure;Samples;Min_cycle;Max_cycle;Signal;HPM_P1;HPM_P2
2022/05/20 00:01:43;;;;;;;;;;;17.60;82.30;;;;;;4991011;28;19918;-78
2022/05/20 00:04:09;;;;;;;;;;;17.50;83.40;;;;;;4972931;28;19914;-77
2022/05/20 00:06:35;;;;;;;;;;;17.60;82.00;;;;;;4988614;28;20008;-78
2022/05/20 00:09:00;;;;;;;;;;;17.50;82.70;;;;;;4989700;28;19934;-79
2022/05/20 00:11:26;;;;;;;;;;;17.50;82.80;;;;;;4991731;28;19921;-77
2022/05/20 00:13:51;;;;;;;;;;;17.50;82.20;;;;;;4991462;28;19914;-78
2022/05/20 00:16:17;;;;;;;;;;;17.50;82.00;;;;;;4992176;28;19936;-78
2022/05/20 00:18:42;;;;;;;;;;;17.40;82.90;;;;;;4992525;28;19957;-78
2022/05/20 00:21:08;;;;;;;;;;;17.30;82.50;;;;;;4991870;28;19956;-78
2022/05/20 00:23:33;;;;;;;;;;;17.20;82.30;;;;;;4992518;28;19914;-78
2022/05/20 00:25:59;;;;;;;;;;;17.20;82.60;;;;;;4992810;28;19918;-78
2022/05/20 00:28:25;;;;;;;;;;;17.10;82.60;;;;;;4976672;28;20396;-79
2022/05/20 00:31:10;;;;;;;;;;;17.10;83.00;;;;;;4991971;28;19921;-79
2022/05/20 00:33:37;;;;;;;;;;;17.00;83.50;;;;;;4993185;28;19917;-78
2022/05/20 00:36:03;;;;;;;;;;;17.00;84.40;;;;;;4977382;28;20006;-78
2022/05/20 00:38:28;;;;;;;;;;;17.00;84.30;;;;;;4990822;28;19949;-78
2022/05/20 00:40:55;;;;;;;;;;;16.90;83.90;;;;;;4991645;28;20385;-78
2022/05/20 00:43:27;;;;;;;;;;;17.00;84.00;;;;;;4992664;28;20335;-78
2022/05/20 00:45:54;;;;;;;;;;;17.10;83.60;;;;;;4989986;28;19935;-79
2022/05/20 00:48:19;;;;;;;;;;;16.90;84.30;;;;;;5004595;28;19973;-79
2022/05/20 00:50:48;;;;;;;;;;;16.90;84.80;;;;;;4991210;28;19962;-79
2022/05/20 00:53:14;;;;;;;;;;;16.90;84.50;;;;;;4991489;28;20001;-79
2022/05/20 00:55:41;;;;;;;;;;;16.90;84.60;;;;;;4998706;28;19928;-79
2022/05/20 00:58:09;;;;;;;;;;;16.80;84.70;;;;;;4992541;28;19969;-79
2022/05/20 01:00:41;;;;;;;;;;;16.70;85.00;;;;;;4991212;28;20245;-79
2022/05/20 01:03:08;;;;;;;;;;;16.60;84.90;;;;;;4997148;28;20344;-79
2022/05/20 01:05:36;;;;;;;;;;;16.60;84.90;;;;;;4997728;28;20132;-79
2022/05/20 01:08:01;;;;;;;;;;;16.60;84.60;;;;;;4975745;28;19914;-79
2022/05/20 01:10:27;;;;;;;;;;;16.60;84.60;;;;;;4990852;28;20021;-79
2022/05/20 01:12:53;;;;;;;;;;;16.70;84.70;;;;;;4998863;28;19925;-79
2022/05/20 01:15:19;;;;;;;;;;;16.70;84.70;;;;;;4978931;28;19914;-78
2022/05/20 01:17:45;;;;;;;;;;;16.80;84.20;;;;;;4995212;28;19936;-78
2022/05/20 01:20:16;;;;;;;;;;;16.70;84.00;;;;;;4993490;28;19918;-78
2022/05/20 01:22:46;;;;;;;;;;;16.70;84.00;;;;;;4998841;28;20012;-79
2022/05/20 01:25:11;;;;;;;;;;;16.60;84.10;;;;;;5012023;28;21049;-79
2022/05/20 01:27:42;;;;;;;;;;;16.50;84.10;;;;;;5013069;28;19937;-79
2022/05/20 01:30:09;;;;;;;;;;;16.40;84.30;;;;;;5011471;28;19956;-78
2022/05/20 01:32:34;;;;;;;;;;;16.40;84.80;;;;;;5018750;28;20595;-79
2022/05/20 01:35:00;;;;;;;;;;;16.30;85.20;;;;;;5001121;28;20009;-78
2022/05/20 01:37:26;;;;;;;;;;;16.40;85.10;;;;;;4990581;28;19924;-79
2022/05/20 01:39:51;;;;;;;;;;;16.30;85.40;;;;;;4992628;28;19921;-78
2022/05/20 01:42:23;;;;;;;;;;;16.30;85.50;;;;;;4993359;28;20294;-78
2022/05/20 01:45:01;;;;;;;;;;;16.20;86.20;;;;;;4993570;28;19940;-79
2022/05/20 01:47:33;;;;;;;;;;;16.10;86.70;;;;;;5003123;28;20005;-79
2022/05/20 01:49:59;;;;;;;;;;;16.10;86.90;;;;;;5010785;28;19941;-78
2022/05/20 01:52:47;;;;;;;;;;;16.20;86.90;;;;;;4993417;28;20343;-79
2022/05/20 01:55:15;;;;;;;;;;;16.40;85.80;;;;;;5007947;28;20373;-78
2022/05/20 01:57:45;;;;;;;;;;;16.50;85.40;;;;;;4993672;28;19976;-78
2022/05/20 02:00:16;;;;;;;;;;;16.50;85.10;;;;;;4994311;28;19949;-78
2022/05/20 02:02:55;;;;;;;;;;;16.50;85.10;;;;;;4997898;28;20001;-78
2022/05/20 02:05:27;;;;;;;;;;;16.40;85.20;;;;;;4992127;28;19925;-78
2022/05/20 02:07:55;;;;;;;;;;;16.30;85.50;;;;;;4993626;28;19913;-78
2022/05/20 02:10:24;;;;;;;;;;;16.30;85.60;;;;;;4992326;28;19952;-78
2022/05/20 02:12:52;;;;;;;;;;;16.20;86.20;;;;;;5004294;28;20281;-78
2022/05/20 02:15:21;;;;;;;;;;;16.20;86.20;;;;;;4993098;28;20402;-78
2022/05/20 02:17:48;;;;;;;;;;;16.20;86.00;;;;;;4995673;28;19969;-80
2022/05/20 02:20:14;;;;;;;;;;;16.10;86.20;;;;;;4993121;28;20052;-78
2022/05/20 02:22:49;;;;;;;;;;;16.10;86.70;;;;;;4992965;28;19994;-78
2022/05/20 02:25:17;;;;;;;;;;;16.10;87.20;;;;;;4994487;28;19930;-78
2022/05/20 02:27:45;;;;;;;;;;;16.10;87.00;;;;;;4978670;28;19914;-78
2022/05/20 02:30:16;;;;;;;;;;;16.00;87.10;;;;;;4991594;28;20529;-78
2022/05/20 02:32:48;;;;;;;;;;;16.00;86.70;;;;;;4987412;28;20370;-78
2022/05/20 02:35:14;;;;;;;;;;;16.00;86.70;;;;;;4984936;28;19921;-78
2022/05/20 02:37:40;;;;;;;;;;;15.90;86.60;;;;;;4996182;28;19909;-78
2022/05/20 02:40:06;;;;;;;;;;;15.90;86.70;;;;;;4979410;28;19929;-78
2022/05/20 02:42:32;;;;;;;;;;;16.00;86.30;;;;;;4995142;28;20000;-78
2022/05/20 02:44:59;;;;;;;;;;;16.00;85.20;;;;;;4975773;28;19962;-78
2022/05/20 02:47:31;;;;;;;;;;;15.90;85.10;;;;;;4977687;28;20246;-79
2022/05/20 02:50:23;;;;;;;;;;;15.80;85.90;;;;;;4989624;28;19921;-78
2022/05/20 02:52:48;;;;;;;;;;;15.80;85.80;;;;;;4987327;28;20001;-79
2022/05/20 02:55:14;;;;;;;;;;;15.80;85.50;;;;;;4973706;28;20406;-79
2022/05/20 02:57:39;;;;;;;;;;;15.70;86.10;;;;;;5003340;28;19928;-78
2022/05/20 03:05:34;;;;;;;;;;;15.60;86.20;;;;;;4995894;28;20676;-79
2022/05/20 03:07:59;;;;;;;;;;;15.60;85.90;;;;;;4981057;28;19945;-79
2022/05/20 03:10:25;;;;;;;;;;;15.60;86.00;;;;;;4985691;28;19914;-79
2022/05/20 03:12:51;;;;;;;;;;;15.60;86.80;;;;;;4994290;28;19917;-79
2022/05/20 03:15:17;;;;;;;;;;;15.60;87.10;;;;;;4993294;28;19921;-78
2022/05/20 03:17:43;;;;;;;;;;;15.70;86.50;;;;;;4976373;28;19914;-79
2022/05/20 03:20:09;;;;;;;;;;;15.60;85.80;;;;;;4975774;28;19936;-78
2022/05/20 03:22:35;;;;;;;;;;;15.60;85.40;;;;;;4975290;28;19980;-78
2022/05/20 03:25:02;;;;;;;;;;;15.60;85.50;;;;;;4983380;28;19914;-79
2022/05/20 03:27:27;;;;;;;;;;;15.50;85.80;;;;;;4992621;28;20298;-78
2022/05/20 03:29:53;;;;;;;;;;;15.50;86.40;;;;;;4979041;28;19917;-79
2022/05/20 03:32:18;;;;;;;;;;;15.40;86.60;;;;;;4993431;28;19914;-78
2022/05/20 03:34:44;;;;;;;;;;;15.40;86.90;;;;;;4983360;28;19945;-79
2022/05/20 03:37:09;;;;;;;;;;;15.30;87.20;;;;;;4976678;28;20415;-79
2022/05/20 03:39:35;;;;;;;;;;;15.30;87.10;;;;;;4975734;28;20394;-78
2022/05/20 03:42:01;;;;;;;;;;;15.30;87.30;;;;;;4977744;28;19992;-78
2022/05/20 03:44:27;;;;;;;;;;;15.30;87.10;;;;;;4992084;28;19924;-78
2022/05/20 03:46:53;;;;;;;;;;;15.30;87.40;;;;;;4994092;28;20290;-79
2022/05/20 03:49:20;;;;;;;;;;;15.40;86.50;;;;;;4983830;28;19914;-78
2022/05/20 03:51:49;;;;;;;;;;;15.40;85.90;;;;;;4995224;28;19914;-79
2022/05/20 03:54:15;;;;;;;;;;;15.40;85.70;;;;;;4993488;28;19922;-79
2022/05/20 03:56:41;;;;;;;;;;;15.30;86.00;;;;;;4976736;28;19918;-78
2022/05/20 03:59:10;;;;;;;;;;;15.30;86.40;;;;;;4991792;28;20020;-78
2022/05/20 04:04:21;;;;;;;;;;;15.40;86.60;;;;;;4992283;28;19971;-78
2022/05/20 04:06:46;;;;;;;;;;;15.40;86.50;;;;;;4989128;28;20387;-79
2022/05/20 04:09:12;;;;;;;;;;;15.50;86.60;;;;;;4994348;28;19914;-79
2022/05/20 04:11:38;;;;;;;;;;;15.60;86.30;;;;;;4996056;28;19920;-79
2022/05/20 04:14:03;;;;;;;;;;;15.60;86.60;;;;;;5001498;28;19968;-79
2022/05/20 04:16:29;;;;;;;;;;;15.70;86.40;;;;;;5005143;28;20000;-79
2022/05/20 04:18:54;;;;;;;;;;;15.70;85.90;;;;;;4976494;28;19914;-79
2022/05/20 04:21:20;;;;;;;;;;;15.60;86.10;;;;;;4995923;28;20549;-79
2022/05/20 04:23:45;;;;;;;;;;;15.60;86.60;;;;;;4993839;28;19925;-79
2022/05/20 04:26:11;;;;;;;;;;;15.70;86.50;;;;;;4995734;28;20031;-79
2022/05/20 04:28:37;;;;;;;;;;;15.70;86.60;;;;;;4995080;28;20486;-79
2022/05/20 04:31:04;;;;;;;;;;;15.80;86.60;;;;;;4978022;28;19937;-79
2022/05/20 04:33:30;;;;;;;;;;;16.00;86.30;;;;;;4997815;28;19953;-79
2022/05/20 04:35:56;;;;;;;;;;;16.00;86.70;;;;;;5011054;28;19917;-79
2022/05/20 04:38:21;;;;;;;;;;;16.20;86.50;;;;;;4983575;28;19914;-78
2022/05/20 04:46:56;;;;;;;;;;;16.30;86.50;;;;;;4997994;28;20319;-79
2022/05/20 04:49:05;;;;;;;;;;;16.20;86.20;;;;;;4998421;28;19969;-78
2022/05/20 04:51:31;;;;;;;;;;;16.40;86.00;;;;;;5002169;28;19922;-79
2022/05/20 04:56:41;;;;;;;;;;;16.50;85.80;;;;;;4998015;28;19929;-79
2022/05/20 04:59:06;;;;;;;;;;;16.50;85.60;;;;;;4993834;28;20286;-79
2022/05/20 05:01:32;;;;;;;;;;;16.50;85.60;;;;;;4977630;28;19945;-79
2022/05/20 05:03:57;;;;;;;;;;;16.60;85.30;;;;;;4989385;28;19914;-79
2022/05/20 05:06:23;;;;;;;;;;;16.60;85.00;;;;;;4975888;28;19918;-79
2022/05/20 05:08:48;;;;;;;;;;;16.50;85.40;;;;;;4987952;28;19921;-80
2022/05/20 05:11:14;;;;;;;;;;;16.60;84.90;;;;;;4988737;28;20016;-77
2022/05/20 05:13:39;;;;;;;;;;;16.50;85.20;;;;;;4994751;28;19921;-80
2022/05/20 05:16:05;;;;;;;;;;;16.50;85.50;;;;;;4979425;28;19941;-79
2022/05/20 05:18:32;;;;;;;;;;;16.50;85.60;;;;;;4979160;28;19922;-79
2022/05/20 05:20:58;;;;;;;;;;;16.50;85.50;;;;;;4995287;28;19913;-80
2022/05/20 05:23:24;;;;;;;;;;;16.60;85.60;;;;;;4997738;28;19941;-79
2022/05/20 05:25:50;;;;;;;;;;;16.60;85.60;;;;;;5002850;28;19921;-79
2022/05/20 05:28:16;;;;;;;;;;;16.50;86.00;;;;;;4999492;28;19913;-81
2022/05/20 05:30:44;;;;;;;;;;;16.40;86.00;;;;;;4988486;28;19921;-81
2022/05/20 05:33:09;;;;;;;;;;;16.40;86.40;;;;;;4996050;28;19914;-81
2022/05/20 05:35:35;;;;;;;;;;;16.40;85.80;;;;;;4978268;28;20385;-81
2022/05/20 05:38:00;;;;;;;;;;;16.30;85.90;;;;;;4994145;28;19921;-81
2022/05/20 05:40:28;;;;;;;;;;;16.40;85.70;;;;;;4982303;28;20005;-80
2022/05/20 05:42:55;;;;;;;;;;;16.40;85.80;;;;;;4993829;28;21475;-77
2022/05/20 05:45:21;;;;;;;;;;;16.40;85.70;;;;;;4989076;28;20422;-78
2022/05/20 05:47:48;;;;;;;;;;;16.50;85.90;;;;;;4988751;28;19917;-77
2022/05/20 05:50:13;;;;;;;;;;;16.40;85.30;;;;;;4988269;28;19917;-78
2022/05/20 05:52:39;;;;;;;;;;;16.30;85.50;;;;;;4989944;28;19968;-78
2022/05/20 05:55:04;;;;;;;;;;;16.20;85.80;;;;;;5004646;28;19964;-78
2022/05/20 05:57:30;;;;;;;;;;;16.10;86.40;;;;;;5006727;28;19925;-78
2022/05/20 05:59:56;;;;;;;;;;;16.20;86.40;;;;;;4991473;28;19942;-77
2022/05/20 06:02:21;;;;;;;;;;;16.30;86.30;;;;;;4990850;28;20154;-78
2022/05/20 06:04:47;;;;;;;;;;;16.40;86.00;;;;;;4974951;28;20005;-78
2022/05/20 06:07:14;;;;;;;;;;;16.30;86.50;;;;;;5006001;28;19956;-81
2022/05/20 06:09:40;;;;;;;;;;;16.40;87.10;;;;;;4990508;28;20429;-80
2022/05/20 06:12:05;;;;;;;;;;;16.50;86.60;;;;;;4994673;28;20004;-79
2022/05/20 06:14:31;;;;;;;;;;;16.50;86.70;;;;;;4995391;28;19926;-81
2022/05/20 06:16:57;;;;;;;;;;;16.50;86.20;;;;;;4991151;28;20378;-79
2022/05/20 06:19:22;;;;;;;;;;;16.60;85.80;;;;;;5004304;28;19921;-80
2022/05/20 06:21:48;;;;;;;;;;;16.80;86.40;;;;;;4994301;28;20358;-79
2022/05/20 06:24:13;;;;;;;;;;;16.80;86.20;;;;;;4994279;28;19925;-78
2022/05/20 06:26:41;;;;;;;;;;;16.70;86.00;;;;;;4990232;28;20287;-79
2022/05/20 06:29:06;;;;;;;;;;;16.70;86.70;;;;;;4988619;28;19914;-78
2022/05/20 06:31:32;;;;;;;;;;;16.70;86.70;;;;;;4991934;28;19940;-78
2022/05/20 06:33:58;;;;;;;;;;;16.70;86.70;;;;;;4992658;28;19913;-78
2022/05/20 06:41:52;;;;;;;;;;;16.90;86.10;;;;;;4990861;28;19968;-78
2022/05/20 06:44:18;;;;;;;;;;;17.10;85.80;;;;;;4979223;28;19918;-79
2022/05/20 06:46:43;;;;;;;;;;;17.10;85.20;;;;;;4995550;28;19921;-81
2022/05/20 06:49:09;;;;;;;;;;;17.00;83.90;;;;;;4991254;28;19918;-79
2022/05/20 06:51:36;;;;;;;;;;;17.00;84.60;;;;;;4973863;28;19922;-79
2022/05/20 06:54:02;;;;;;;;;;;17.00;84.60;;;;;;4990003;28;19981;-78
2022/05/20 06:56:29;;;;;;;;;;;17.10;84.50;;;;;;4989859;28;19924;-78
2022/05/20 06:58:55;;;;;;;;;;;17.20;84.30;;;;;;4972607;28;20117;-78
2022/05/20 07:01:21;;;;;;;;;;;17.10;84.90;;;;;;4990702;28;19929;-78
2022/05/20 07:03:46;;;;;;;;;;;17.30;83.60;;;;;;5000080;28;19910;-79
2022/05/20 07:06:13;;;;;;;;;;;17.30;82.40;;;;;;4994296;28;19968;-78
2022/05/20 07:08:39;;;;;;;;;;;17.30;79.10;;;;;;4994654;28;19952;-79
2022/05/20 07:11:05;;;;;;;;;;;17.30;81.50;;;;;;4993481;28;19914;-78
2022/05/20 07:13:31;;;;;;;;;;;17.30;80.20;;;;;;4993982;28;20298;-79
2022/05/20 07:15:57;;;;;;;;;;;17.40;81.40;;;;;;4994789;28;19925;-79
2022/05/20 07:18:26;;;;;;;;;;;17.60;82.90;;;;;;4994211;28;19914;-79
2022/05/20 07:20:51;;;;;;;;;;;17.60;80.40;;;;;;4974833;28;19925;-79
2022/05/20 07:23:16;;;;;;;;;;;17.60;80.20;;;;;;4995070;28;19917;-79
2022/05/20 07:25:42;;;;;;;;;;;17.60;81.10;;;;;;4993970;28;20309;-79
2022/05/20 07:28:07;;;;;;;;;;;17.60;81.20;;;;;;4994522;28;19937;-79
2022/05/20 07:30:33;;;;;;;;;;;17.60;81.60;;;;;;4970048;28;19969;-79
2022/05/20 07:32:58;;;;;;;;;;;17.60;80.60;;;;;;4994199;28;19914;-79
2022/05/20 07:35:24;;;;;;;;;;;17.80;79.30;;;;;;5004455;28;19918;-79
2022/05/20 07:37:50;;;;;;;;;;;17.90;76.40;;;;;;4995597;28;20271;-79
2022/05/20 07:40:17;;;;;;;;;;;17.90;77.60;;;;;;4973827;28;20665;-79
2022/05/20 07:42:42;;;;;;;;;;;17.90;78.40;;;;;;4991216;28;20016;-79
2022/05/20 07:45:08;;;;;;;;;;;17.80;77.80;;;;;;4992941;28;19944;-78
2022/05/20 07:47:33;;;;;;;;;;;17.80;78.80;;;;;;5009479;28;19914;-79
2022/05/20 07:49:59;;;;;;;;;;;17.80;79.80;;;;;;5009462;28;19986;-79
2022/05/20 07:55:09;;;;;;;;;;;18.00;80.30;;;;;;4982093;28;19949;-78
2022/05/20 07:57:37;;;;;;;;;;;18.10;79.70;;;;;;4971293;28;19929;-78
2022/05/20 08:00:03;;;;;;;;;;;18.00;77.80;;;;;;4989575;28;20179;-78
2022/05/20 08:02:29;;;;;;;;;;;18.10;78.20;;;;;;4988952;28;20402;-79
2022/05/20 08:04:57;;;;;;;;;;;18.10;77.90;;;;;;4993526;28;19970;-78
2022/05/20 08:07:24;;;;;;;;;;;18.00;79.00;;;;;;4983266;28;20091;-78
2022/05/20 08:09:50;;;;;;;;;;;18.10;78.60;;;;;;4992540;28;19978;-77
2022/05/20 08:12:15;;;;;;;;;;;18.20;77.90;;;;;;5007288;28;19964;-79
2022/05/20 08:14:41;;;;;;;;;;;18.30;78.40;;;;;;4976542;28;19918;-79
2022/05/20 08:17:06;;;;;;;;;;;18.30;78.60;;;;;;4975737;28;19910;-79
2022/05/20 08:19:32;;;;;;;;;;;18.40;77.80;;;;;;4973413;28;19916;-79
2022/05/20 08:21:58;;;;;;;;;;;18.60;75.60;;;;;;4980887;28;19948;-79
2022/05/20 08:24:24;;;;;;;;;;;18.60;75.40;;;;;;4975281;28;19964;-82
2022/05/20 08:26:50;;;;;;;;;;;18.50;77.60;;;;;;4994652;28;19910;-81
2022/05/20 08:29:15;;;;;;;;;;;18.80;75.00;;;;;;4975130;28;19925;-81
2022/05/20 08:31:41;;;;;;;;;;;18.90;75.00;;;;;;4992108;28;20502;-81
2022/05/20 08:34:07;;;;;;;;;;;18.90;75.80;;;;;;4987199;28;19920;-81
2022/05/20 08:36:34;;;;;;;;;;;19.00;75.20;;;;;;4991577;28;20285;-81
2022/05/20 08:38:59;;;;;;;;;;;19.00;74.90;;;;;;4990750;28;19956;-81
2022/05/20 08:41:30;;;;;;;;;;;19.10;76.50;;;;;;4968619;28;20002;-81
2022/05/20 08:43:55;;;;;;;;;;;19.30;75.60;;;;;;4997628;28;19914;-81
2022/05/20 08:46:22;;;;;;;;;;;19.60;75.10;;;;;;4998205;28;19913;-82
2022/05/20 08:48:54;;;;;;;;;;;19.70;73.40;;;;;;4991544;28;19914;-80
2022/05/20 08:51:21;;;;;;;;;;;19.90;73.60;;;;;;4989603;28;19914;-82
2022/05/20 08:53:47;;;;;;;;;;;20.20;72.60;;;;;;4998438;28;19979;-80
2022/05/20 08:56:20;;;;;;;;;;;20.20;72.90;;;;;;5003651;28;19929;-79
2022/05/20 08:58:54;;;;;;;;;;;20.10;72.10;;;;;;4993121;28;19944;-79
2022/05/20 09:01:30;;;;;;;;;;;20.10;72.40;;;;;;4989410;28;19910;-81
2022/05/20 09:03:56;;;;;;;;;;;20.10;73.20;;;;;;4969243;28;20271;-81
2022/05/20 09:06:22;;;;;;;;;;;20.20;71.40;;;;;;4977427;28;19921;-80
2022/05/20 09:09:14;;;;;;;;;;;20.40;72.10;;;;;;4966900;28;20036;-80
2022/05/20 09:11:44;;;;;;;;;;;20.10;73.50;;;;;;4980956;28;20056;-82
2022/05/20 09:17:04;;;;;;;;;;;20.10;73.20;;;;;;4983726;28;20465;-81
2022/05/20 09:19:30;;;;;;;;;;;20.40;72.10;;;;;;4973196;28;19921;-81
2022/05/20 09:22:04;;;;;;;;;;;20.50;71.70;;;;;;4979927;28;19918;-82
2022/05/20 09:24:35;;;;;;;;;;;20.60;71.60;;;;;;4983027;28;20031;-82
2022/05/20 09:27:05;;;;;;;;;;;20.50;73.80;;;;;;4980621;28;19917;-81
2022/05/20 09:29:37;;;;;;;;;;;20.50;73.80;;;;;;4980979;28;19918;-81
2022/05/20 09:32:04;;;;;;;;;;;20.50;73.90;;;;;;4961097;28;19914;-83
2022/05/20 09:34:35;;;;;;;;;;;20.70;71.30;;;;;;4984531;28;19973;-81
2022/05/20 09:37:13;;;;;;;;;;;21.00;69.90;;;;;;4983841;28;20406;-81
2022/05/20 09:39:41;;;;;;;;;;;21.10;70.80;;;;;;4976920;28;20322;-81
2022/05/20 09:42:17;;;;;;;;;;;20.80;71.50;;;;;;4975968;28;19914;-83
2022/05/20 09:44:44;;;;;;;;;;;20.90;71.30;;;;;;4990238;28;20029;-79
2022/05/20 09:47:22;;;;;;;;;;;20.80;70.80;;;;;;4992153;28;19917;-81
2022/05/20 09:50:11;;;;;;;;;;;20.50;72.40;;;;;;4977559;28;19921;-81
2022/05/20 09:52:52;;;;;;;;;;;20.50;72.90;;;;;;4963797;28;19913;-80
2022/05/20 09:55:25;;;;;;;;;;;20.70;73.10;;;;;;4976217;28;20387;-80
2022/05/20 09:57:53;;;;;;;;;;;20.60;71.40;;;;;;4991880;28;19921;-78
2022/05/20 10:00:19;;;;;;;;;;;20.60;73.20;;;;;;4972632;28;19936;-80
2022/05/20 10:02:45;;;;;;;;;;;20.50;73.00;;;;;;4971558;28;20494;-82
2022/05/20 10:05:25;;;;;;;;;;;20.40;74.60;;;;;;4975617;28;19918;-81
2022/05/20 10:08:10;;;;;;;;;;;20.40;74.60;;;;;;4985021;28;20313;-81
2022/05/20 10:10:45;;;;;;;;;;;20.40;74.60;;;;;;4977046;28;19936;-79
2022/05/20 10:13:17;;;;;;;;;;;20.40;75.70;;;;;;4985459;28;20421;-81
2022/05/20 10:15:45;;;;;;;;;;;20.20;75.00;;;;;;4972099;28;19936;-81
2022/05/20 10:18:10;;;;;;;;;;;20.10;75.90;;;;;;4976383;28;19961;-81
2022/05/20 10:20:54;;;;;;;;;;;20.40;74.60;;;;;;4983488;28;19921;-81
2022/05/20 10:23:31;;;;;;;;;;;20.50;73.90;;;;;;4982005;28;19914;-82
2022/05/20 10:26:07;;;;;;;;;;;20.30;74.30;;;;;;4976448;28;20004;-81
2022/05/20 10:34:31;;;;;;;;;;;21.00;72.10;;;;;;4992342;28;19925;-80
2022/05/20 10:37:09;;;;;;;;;;;20.90;73.70;;;;;;4971195;28;19922;-80
2022/05/20 10:39:44;;;;;;;;;;;21.20;71.60;;;;;;4988121;28;19922;-79
2022/05/20 10:42:09;;;;;;;;;;;21.50;71.00;;;;;;4999256;28;19922;-81
2022/05/20 10:50:31;;;;;;;;;;;21.30;74.10;;;;;;4990429;28;19992;-80
2022/05/20 10:53:05;;;;;;;;;;;21.70;71.20;;;;;;4995326;28;19909;-81
2022/05/20 10:55:37;;;;;;;;;;;21.70;72.00;;;;;;4995947;28;19928;-82
2022/05/20 10:58:21;;;;;;;;;;;22.00;70.90;;;;;;4988108;28;19914;-82
2022/05/20 11:00:50;;;;;;;;;;;21.80;71.10;;;;;;4993538;28;19960;-82
2022/05/20 11:03:34;;;;;;;;;;;22.00;72.50;;;;;;4983144;28;19921;-82
2022/05/20 11:06:06;;;;;;;;;;;21.80;73.20;;;;;;4972440;28;19925;-80
2022/05/20 11:08:38;;;;;;;;;;;21.70;74.40;;;;;;4985614;28;19953;-81
2022/05/20 11:11:22;;;;;;;;;;;21.70;75.00;;;;;;4998686;28;20409;-80
2022/05/20 11:13:51;;;;;;;;;;;21.60;74.00;;;;;;4984836;28;19922;-81
2022/05/20 11:16:35;;;;;;;;;;;21.60;74.80;;;;;;4970587;28;19929;-83
2022/05/20 11:19:01;;;;;;;;;;;21.60;74.20;;;;;;4977022;28;19949;-80
2022/05/20 11:21:36;;;;;;;;;;;21.50;74.70;;;;;;4974581;28;20252;-81
2022/05/20 11:24:24;;;;;;;;;;;21.60;77.20;;;;;;4994181;28;20024;-81
2022/05/20 11:26:49;;;;;;;;;;;21.70;76.80;;;;;;4975746;28;19914;-80
2022/05/20 11:29:24;;;;;;;;;;;21.60;76.20;;;;;;4989728;28;20451;-81
2022/05/20 11:32:07;;;;;;;;;;;21.50;75.70;;;;;;5002018;28;19917;-81
2022/05/20 11:34:49;;;;;;;;;;;21.50;76.30;;;;;;4994564;28;19932;-81
2022/05/20 11:37:33;;;;;;;;;;;21.60;76.10;;;;;;4993564;28;19929;-79
2022/05/20 11:40:25;;;;;;;;;;;21.60;75.90;;;;;;4993703;28;19910;-79
2022/05/20 11:42:53;;;;;;;;;;;21.50;77.10;;;;;;4971749;28;19964;-81
2022/05/20 11:45:20;;;;;;;;;;;21.60;77.20;;;;;;4992828;28;20019;-81
2022/05/20 11:48:04;;;;;;;;;;;21.70;76.70;;;;;;4976625;28;20388;-81
2022/05/20 11:50:29;;;;;;;;;;;21.90;76.10;;;;;;4988377;28;20274;-81
2022/05/20 11:53:01;;;;;;;;;;;22.20;76.10;;;;;;4983288;28;19922;-81
2022/05/20 11:55:26;;;;;;;;;;;22.50;74.50;;;;;;4975556;28;19925;-82
2022/05/20 11:58:01;;;;;;;;;;;22.50;75.30;;;;;;4977091;28;19913;-83
2022/05/20 12:00:27;;;;;;;;;;;22.60;74.30;;;;;;4993572;28;19920;-82
2022/05/20 12:03:14;;;;;;;;;;;22.70;75.30;;;;;;4995010;28;20000;-81
2022/05/20 12:05:42;;;;;;;;;;;22.80;76.10;;;;;;4999535;28;20267;-81
2022/05/20 12:08:08;;;;;;;;;;;22.90;75.20;;;;;;4985135;28;20227;-82
2022/05/20 12:10:33;;;;;;;;;;;22.70;75.10;;;;;;4993992;28;19914;-82
2022/05/20 12:13:36;;;;;;;;;;;22.60;75.30;;;;;;4976415;28;22414;-81
2022/05/20 12:16:07;;;;;;;;;;;22.50;75.60;;;;;;4894730;29;19926;-80
2022/05/20 12:24:26;;;;;;;;;;;22.70;75.10;;;;;;4992854;28;19925;-82
2022/05/20 12:26:53;;;;;;;;;;;22.90;74.60;;;;;;4992742;28;19983;-81
2022/05/20 12:29:43;;;;;;;;;;;22.80;75.20;;;;;;4992851;28;19914;-82
2022/05/20 12:32:25;;;;;;;;;;;23.10;74.20;;;;;;4981192;28;19926;-80
2022/05/20 12:35:05;;;;;;;;;;;23.10;75.10;;;;;;4999062;28;19968;-80
2022/05/20 12:37:42;;;;;;;;;;;23.40;74.70;;;;;;4992639;28;19941;-82
2022/05/20 12:40:26;;;;;;;;;;;23.20;74.90;;;;;;4988953;28;19924;-81
2022/05/20 12:42:58;;;;;;;;;;;23.00;74.70;;;;;;4988539;28;19946;-83
2022/05/20 12:45:24;;;;;;;;;;;23.10;73.70;;;;;;4981131;28;20363;-81
2022/05/20 12:47:49;;;;;;;;;;;23.10;74.50;;;;;;4987683;28;19935;-82
2022/05/20 12:50:15;;;;;;;;;;;23.00;75.00;;;;;;4991268;28;19957;-80
2022/05/20 12:52:45;;;;;;;;;;;22.70;76.10;;;;;;4999238;28;20021;-83
2022/05/20 12:55:13;;;;;;;;;;;22.60;76.00;;;;;;4973127;28;20368;-82
2022/05/20 12:57:47;;;;;;;;;;;22.50;76.50;;;;;;4993797;28;19989;-82
2022/05/20 13:00:14;;;;;;;;;;;22.40;76.70;;;;;;4982908;28;19933;-83
2022/05/20 13:02:42;;;;;;;;;;;22.50;77.00;;;;;;4994772;28;20017;-83
2022/05/20 13:05:14;;;;;;;;;;;22.50;76.70;;;;;;4995672;28;19921;-81
2022/05/20 13:07:39;;;;;;;;;;;22.50;77.60;;;;;;4973845;28;20139;-83
2022/05/20 13:10:24;;;;;;;;;;;22.40;77.40;;;;;;4973447;28;20427;-83
2022/05/20 13:12:50;;;;;;;;;;;22.40;77.20;;;;;;4990183;28;19914;-82
2022/05/20 13:15:19;;;;;;;;;;;22.40;76.90;;;;;;4983959;28;19921;-80
2022/05/20 13:17:58;;;;;;;;;;;22.50;76.50;;;;;;4969717;28;20020;-82
2022/05/20 13:20:25;;;;;;;;;;;22.50;76.30;;;;;;4975671;28;19922;-82
2022/05/20 13:22:50;;;;;;;;;;;22.30;77.10;;;;;;4984236;28;19949;-82
2022/05/20 13:25:16;;;;;;;;;;;22.10;77.40;;;;;;4989262;28;19917;-81
2022/05/20 13:27:46;;;;;;;;;;;22.30;77.20;;;;;;5005234;28;19925;-82
2022/05/20 13:30:21;;;;;;;;;;;22.10;78.10;;;;;;5006284;28;19924;-82
2022/05/20 13:32:46;;;;;;;;;;;22.00;78.90;;;;;;4993108;28;19913;-79
2022/05/20 13:35:12;;;;;;;;;;;21.80;80.10;;;;;;4999027;28;19928;-80
2022/05/20 13:37:48;;;;;;;;;;;21.60;81.50;;;;;;4987879;28;19914;-81
2022/05/20 13:40:22;;;;;;;;;;;21.60;84.40;;;;;;4995098;28;19918;-82
2022/05/20 13:42:50;;;;;;;;;;;21.60;86.90;;;;;;4984754;28;19914;-81
2022/05/20 13:45:17;;;;;;;;;;;21.30;87.50;;;;;;4976087;28;19918;-81
2022/05/20 13:50:27;;;;;;;;;;;21.20;89.40;;;;;;4990170;28;19980;-81
2022/05/20 13:52:54;;;;;;;;;;;21.20;89.80;;;;;;4984563;28;19960;-80
2022/05/20 13:55:21;;;;;;;;;;;21.10;89.60;;;;;;4973321;28;19925;-81
2022/05/20 13:57:47;;;;;;;;;;;21.00;89.90;;;;;;4989637;28;19917;-82
2022/05/20 14:00:17;;;;;;;;;;;20.70;88.90;;;;;;4964325;28;19933;-84
2022/05/20 14:02:48;;;;;;;;;;;20.60;89.40;;;;;;4984011;28;20005;-79
2022/05/20 14:05:34;;;;;;;;;;;20.40;89.90;;;;;;4987553;28;19940;-80
2022/05/20 14:08:01;;;;;;;;;;;20.50;90.20;;;;;;4993611;28;19924;-78
2022/05/20 14:10:27;;;;;;;;;;;20.50;90.60;;;;;;4977807;28;19921;-78
2022/05/20 14:13:11;;;;;;;;;;;20.60;90.00;;;;;;4985613;28;19917;-77
2022/05/20 14:15:50;;;;;;;;;;;20.80;90.40;;;;;;4987115;28;20310;-77
2022/05/20 14:18:21;;;;;;;;;;;21.10;90.10;;;;;;4987329;28;20388;-77
2022/05/20 14:20:52;;;;;;;;;;;21.10;89.00;;;;;;4975090;28;20385;-77
2022/05/20 14:23:19;;;;;;;;;;;21.30;89.30;;;;;;4977691;28;19937;-78
2022/05/20 14:25:50;;;;;;;;;;;21.70;89.10;;;;;;4978904;28;20381;-78
2022/05/20 14:28:17;;;;;;;;;;;21.90;88.60;;;;;;4985651;28;20289;-78
2022/05/20 14:30:45;;;;;;;;;;;22.10;87.80;;;;;;4996202;28;19921;-80
2022/05/20 14:33:33;;;;;;;;;;;22.10;86.40;;;;;;4998107;28;19996;-84
2022/05/20 14:36:00;;;;;;;;;;;22.10;86.20;;;;;;4995246;28;20009;-78
2022/05/20 14:38:36;;;;;;;;;;;22.00;85.90;;;;;;5010688;28;19918;-81
2022/05/20 14:41:22;;;;;;;;;;;21.80;85.90;;;;;;5027756;22;19918;-88
2022/05/20 14:43:53;;;;;;;;;;;21.80;86.30;;;;;;4944056;28;19972;-85
2022/05/20 14:49:19;;;;;;;;;;;21.80;86.20;;;;;;4971956;28;19967;-82
2022/05/20 14:51:46;;;;;;;;;;;21.60;86.50;;;;;;4960876;28;19962;-84
2022/05/20 14:54:14;;;;;;;;;;;21.70;86.90;;;;;;4976030;28;20096;-85
2022/05/20 14:56:41;;;;;;;;;;;21.60;87.60;;;;;;4979637;28;20563;-84
2022/05/20 14:59:08;;;;;;;;;;;21.50;87.40;;;;;;4965483;28;20240;-84
2022/05/20 15:01:34;;;;;;;;;;;21.50;87.90;;;;;;4940985;28;20092;-84
2022/05/20 15:03:59;;;;;;;;;;;21.40;87.90;;;;;;4967911;28;19910;-84
2022/05/20 15:06:26;;;;;;;;;;;21.40;88.00;;;;;;4973783;28;19917;-82
2022/05/20 15:08:52;;;;;;;;;;;21.30;88.50;;;;;;4987528;28;19943;-85
2022/05/20 15:11:23;;;;;;;;;;;21.30;88.80;;;;;;5018482;28;19948;-85
2022/05/20 15:13:49;;;;;;;;;;;21.20;87.90;;;;;;4989635;28;19936;-85
2022/05/20 15:16:14;;;;;;;;;;;21.10;88.30;;;;;;5011063;28;19929;-84
2022/05/20 15:18:40;;;;;;;;;;;21.10;88.40;;;;;;5012439;28;19918;-85